Weather at Tocumen International Airport

Public forecast

Using degrees Celsius for public forecast. Weather courtesy of forecast.io.

Current aviation weather report (METAR) for Tocumen International Airport

2024/06/21 04:00 (retrieved 15 minutes ago)

MPTO 210400Z 00000KT 9999 SCT018 SCT090 25/24 Q1011 NOSIG

Closest aviation forecast (TAF) to Tocumen International Airport

Forecast is more than 6 hours old.

Closest forecast is San Antonio Del Tachira Airport, 418.9 nm (775.9 km) E.

2024/06/20 18:36 (retrieved 10 hours ago)

TAF SVSA 201600Z 2018/2118 14006KT 9999 SCT013 TX32/2018Z TN20/2108Z TEMPO 2019/2023 21008KT 9000 DZ SCT020 BKN016